createdAt,value
2022-10-09T00:04:25.296Z,5.30
2022-10-09T00:09:26.898Z,4.80
2022-10-09T00:14:28.496Z,4.60
2022-10-09T00:19:30.091Z,4.80
2022-10-09T00:24:31.715Z,5.45
2022-10-09T00:29:33.310Z,4.47
2022-10-09T00:34:34.901Z,5.90
2022-10-09T00:39:36.789Z,7.20
2022-10-09T00:44:47.517Z,6.70
2022-10-09T00:49:51.572Z,7.07
2022-10-09T00:54:54.961Z,4.80
2022-10-09T00:59:56.574Z,4.45
2022-10-09T01:04:58.245Z,5.10
2022-10-09T01:10:11.907Z,6.05
2022-10-09T01:15:19.493Z,4.63
2022-10-09T01:20:27.974Z,6.50
2022-10-09T01:25:36.561Z,7.32
2022-10-09T01:30:38.752Z,9.38
2022-10-09T01:35:41.805Z,8.20
2022-10-09T01:40:43.908Z,16.25
2022-10-09T01:45:47.684Z,8.23
2022-10-09T01:51:02.409Z,7.60
2022-10-09T01:56:17.300Z,8.85
2022-10-09T02:01:32.108Z,9.48
2022-10-09T02:06:35.969Z,9.88
2022-10-09T02:11:40.551Z,6.90
2022-10-09T02:16:57.289Z,6.55
2022-10-09T02:22:05.055Z,6.95
2022-10-09T02:27:07.135Z,7.50
2022-10-09T02:32:09.546Z,9.05
2022-10-09T02:37:11.199Z,8.65
2022-10-09T02:42:12.871Z,9.45
2022-10-09T02:47:14.460Z,10.30
2022-10-09T02:52:16.050Z,12.85
2022-10-09T02:57:17.659Z,10.82
2022-10-09T03:02:19.395Z,10.43
2022-10-09T03:07:21.055Z,10.25
2022-10-09T03:12:22.743Z,10.00
2022-10-09T03:17:24.335Z,15.13
2022-10-09T03:22:25.928Z,7.93
2022-10-09T03:27:27.518Z,22.00
2022-10-09T03:32:29.330Z,14.10
2022-10-09T03:37:31.787Z,8.27
2022-10-09T03:42:33.425Z,10.00
2022-10-09T03:47:34.997Z,17.05
2022-10-09T03:52:36.582Z,11.68
2022-10-09T03:57:38.705Z,13.48
2022-10-09T04:02:40.313Z,23.25
2022-10-09T04:07:41.973Z,24.17
2022-10-09T04:12:43.710Z,22.40
2022-10-09T04:17:45.335Z,10.27
2022-10-09T04:22:47.465Z,36.60
2022-10-09T04:27:49.335Z,15.18
2022-10-09T04:32:51.313Z,11.13
2022-10-09T04:37:53.225Z,15.88
2022-10-09T04:42:54.938Z,12.93
2022-10-09T04:47:56.515Z,22.20
2022-10-09T04:52:58.240Z,15.02
2022-10-09T04:57:59.901Z,21.67
2022-10-09T05:03:01.551Z,24.80
2022-10-09T05:08:03.505Z,16.45
2022-10-09T05:13:05.624Z,15.73
2022-10-09T05:18:07.202Z,16.20
2022-10-09T05:23:08.951Z,11.95
2022-10-09T05:28:10.700Z,13.77
2022-10-09T05:33:12.365Z,15.43
2022-10-09T05:38:13.936Z,11.20
2022-10-09T05:43:15.528Z,15.25
2022-10-09T05:48:17.233Z,19.92
2022-10-09T05:53:18.845Z,18.50
2022-10-09T05:58:20.439Z,22.92
2022-10-09T06:03:22.005Z,19.77
2022-10-09T06:08:23.597Z,18.88
2022-10-09T06:13:25.174Z,19.00
2022-10-09T06:18:28.051Z,15.50
2022-10-09T06:23:31.591Z,12.57
2022-10-09T06:28:35.785Z,8.93
2022-10-09T06:33:39.633Z,14.25
2022-10-09T06:38:42.345Z,17.85
2022-10-09T06:43:51.372Z,12.85
2022-10-09T06:48:53.169Z,15.98
2022-10-09T06:53:56.557Z,11.98
2022-10-09T06:59:03.158Z,10.68
2022-10-09T07:04:07.376Z,12.82
2022-10-09T07:09:11.448Z,8.73
2022-10-09T07:14:15.881Z,12.77
2022-10-09T07:19:18.598Z,14.15
2022-10-09T07:24:20.781Z,20.10
2022-10-09T07:29:22.467Z,11.07
2022-10-09T07:34:24.136Z,14.98
2022-10-09T07:39:27.019Z,13.93
2022-10-09T07:44:28.949Z,12.18
2022-10-09T07:49:30.696Z,12.18
2022-10-09T07:54:32.694Z,13.40
2022-10-09T07:59:34.389Z,17.10
2022-10-09T08:04:37.498Z,17.02
2022-10-09T08:09:39.800Z,11.13
2022-10-09T08:14:41.417Z,12.40
2022-10-09T08:19:43.024Z,12.35
2022-10-09T08:24:44.648Z,13.48
2022-10-09T08:29:46.225Z,12.25
2022-10-09T08:34:47.883Z,10.77
2022-10-09T08:39:49.601Z,12.05
2022-10-09T08:44:51.436Z,11.80
2022-10-09T08:49:56.582Z,12.75
2022-10-09T08:55:04.032Z,13.40
2022-10-09T09:00:17.439Z,13.20
2022-10-09T09:05:47.095Z,13.82
2022-10-09T09:10:54.695Z,10.35
2022-10-09T09:16:15.668Z,10.38
2022-10-09T09:21:47.448Z,9.70
2022-10-09T09:32:01.125Z,9.50
2022-10-09T09:37:03.414Z,7.95
2022-10-09T09:42:14.847Z,7.80
2022-10-09T09:47:25.571Z,7.65
2022-10-09T09:52:34.602Z,7.30
2022-10-09T09:57:45.574Z,6.30
2022-10-09T10:07:51.478Z,5.55
2022-10-09T10:12:53.461Z,6.30
2022-10-09T10:18:00.993Z,5.40
2022-10-09T10:23:02.622Z,6.20
2022-10-09T10:28:15.813Z,5.20
2022-10-09T10:33:22.937Z,5.30
2022-10-09T10:38:42.117Z,5.03
2022-10-09T10:43:48.366Z,4.63
2022-10-09T10:48:51.691Z,4.70
2022-10-09T10:54:24.585Z,4.55
2022-10-09T10:59:33.845Z,4.15
2022-10-09T11:04:53.390Z,4.40
2022-10-09T11:09:58.164Z,4.30
2022-10-09T11:15:37.781Z,4.10
2022-10-09T11:20:57.606Z,3.75
2022-10-09T11:26:07.741Z,3.55
2022-10-09T11:31:29.893Z,3.97
2022-10-09T11:36:37.871Z,3.80
2022-10-09T11:41:40.915Z,3.10
2022-10-09T11:47:02.161Z,3.25
2022-10-09T11:52:21.514Z,2.97
2022-10-09T11:57:28.653Z,2.90
2022-10-09T12:02:31.310Z,2.33
2022-10-09T12:07:36.371Z,1.88
2022-10-09T12:12:38.971Z,1.90
2022-10-09T12:17:49.854Z,1.80
2022-10-09T12:23:25.115Z,1.70
2022-10-09T12:28:48.530Z,2.20
2022-10-09T12:34:12.965Z,1.98
2022-10-09T12:39:24.684Z,1.95
2022-10-09T12:44:34.169Z,1.77
2022-10-09T12:49:36.178Z,1.70
2022-10-09T12:54:43.742Z,1.70
2022-10-09T12:59:46.792Z,2.33
2022-10-09T13:04:57.343Z,2.08
2022-10-09T13:10:02.080Z,1.92
2022-10-09T13:15:06.786Z,1.70
2022-10-09T13:20:17.187Z,2.00
2022-10-09T13:30:20.272Z,1.80
2022-10-09T13:35:22.064Z,1.70
2022-10-09T13:40:23.911Z,1.98
2022-10-09T13:45:25.770Z,1.70
2022-10-09T13:50:27.465Z,1.80
2022-10-09T13:55:29.095Z,1.70
2022-10-09T14:00:30.778Z,1.40
2022-10-09T14:05:32.492Z,1.83
2022-10-09T14:10:34.270Z,1.73
2022-10-09T14:15:39.235Z,1.77
2022-10-09T14:20:40.841Z,1.73
2022-10-09T14:25:42.448Z,1.50
2022-10-09T14:30:44.377Z,1.70
2022-10-09T14:35:46.169Z,1.60
2022-10-09T14:40:47.774Z,1.60
2022-10-09T14:45:49.395Z,1.67
2022-10-09T14:50:51.009Z,1.60
2022-10-09T14:55:52.667Z,1.67
2022-10-09T15:00:54.258Z,1.80
2022-10-09T15:06:02.660Z,1.70
2022-10-09T15:11:04.749Z,1.30
2022-10-09T15:16:15.764Z,1.75
2022-10-09T15:21:20.893Z,1.40
2022-10-09T15:26:23.731Z,1.70
2022-10-09T15:31:30.312Z,1.55
2022-10-09T15:36:36.297Z,1.63
2022-10-09T15:41:40.081Z,1.88
2022-10-09T15:46:41.706Z,1.67
2022-10-09T15:51:43.540Z,2.08
2022-10-09T15:56:45.397Z,2.10
2022-10-09T16:01:48.473Z,1.85
2022-10-09T16:06:50.101Z,1.80
2022-10-09T16:11:51.864Z,1.55
2022-10-09T16:16:53.719Z,1.50
2022-10-09T16:21:55.344Z,1.85
2022-10-09T16:26:56.903Z,1.58
2022-10-09T16:31:58.619Z,1.90
2022-10-09T16:37:02.239Z,2.15
2022-10-09T16:42:04.686Z,1.75
2022-10-09T16:47:06.312Z,2.08
2022-10-09T16:52:07.908Z,1.88
2022-10-09T16:57:09.616Z,4.10
2022-10-09T17:02:12.559Z,5.20
2022-10-09T17:07:14.257Z,5.57
2022-10-09T17:12:16.037Z,3.33
2022-10-09T17:17:17.743Z,3.10
2022-10-09T17:22:19.388Z,3.45
2022-10-09T17:27:21.002Z,5.82
2022-10-09T17:32:22.760Z,4.50
2022-10-09T17:37:24.408Z,5.32
2022-10-09T17:42:26.007Z,4.38
2022-10-09T17:47:27.786Z,4.40
2022-10-09T17:52:29.435Z,4.93
2022-10-09T17:57:31.084Z,4.32
2022-10-09T18:02:32.711Z,4.00
2022-10-09T18:07:34.518Z,3.10
2022-10-09T18:12:36.152Z,3.03
2022-10-09T18:17:37.833Z,3.08
2022-10-09T18:22:39.453Z,3.88
2022-10-09T18:27:41.092Z,4.63
2022-10-09T18:32:45.054Z,4.63
2022-10-09T18:37:47.329Z,5.40
2022-10-09T18:42:49.807Z,5.07
2022-10-09T18:47:51.784Z,4.43
2022-10-09T18:52:54.301Z,4.00
2022-10-09T18:57:56.159Z,3.58
2022-10-09T19:02:57.869Z,3.65
2022-10-09T19:07:59.481Z,3.70
2022-10-09T19:13:01.083Z,3.00
2022-10-09T19:18:02.909Z,3.38
2022-10-09T19:23:04.650Z,4.38
2022-10-09T19:28:06.278Z,5.60
2022-10-09T19:33:07.951Z,4.80
2022-10-09T19:38:09.552Z,3.70
2022-10-09T19:43:12.561Z,3.90
2022-10-09T19:48:17.165Z,3.92
2022-10-09T19:53:18.747Z,3.67
2022-10-09T19:58:20.382Z,3.55
2022-10-09T20:03:21.968Z,3.63
2022-10-09T20:08:23.555Z,3.85
2022-10-09T20:13:25.756Z,3.40
2022-10-09T20:18:27.752Z,3.70
2022-10-09T20:23:30.045Z,3.80
2022-10-09T20:28:33.566Z,3.60
2022-10-09T20:33:37.144Z,3.60
2022-10-09T20:38:39.229Z,3.47
2022-10-09T20:43:41.701Z,3.58
2022-10-09T20:48:43.714Z,3.40
2022-10-09T20:53:46.426Z,6.68
2022-10-09T20:58:48.532Z,4.28
2022-10-09T21:03:50.454Z,4.07
2022-10-09T21:08:53.451Z,5.40
2022-10-09T21:13:55.886Z,4.82
2022-10-09T21:19:00.387Z,4.40
2022-10-09T21:24:02.538Z,4.00
2022-10-09T21:29:05.536Z,4.35
2022-10-09T21:34:07.185Z,5.35
2022-10-09T21:39:09.730Z,4.53
2022-10-09T21:44:12.517Z,4.63
2022-10-09T21:49:21.590Z,4.00
2022-10-09T21:54:23.501Z,4.30
2022-10-09T21:59:25.158Z,3.90
2022-10-09T22:04:26.785Z,4.40
2022-10-09T22:09:28.353Z,4.00
2022-10-09T22:14:31.399Z,4.72
2022-10-09T22:19:33.153Z,3.92
2022-10-09T22:24:34.710Z,3.45
2022-10-09T22:29:38.232Z,4.10
2022-10-09T22:34:40.046Z,3.72
2022-10-09T22:39:41.640Z,3.75
2022-10-09T22:44:43.222Z,3.78
2022-10-09T22:49:44.878Z,3.65
2022-10-09T22:54:46.541Z,3.75
2022-10-09T22:59:48.183Z,3.60
2022-10-09T23:04:49.815Z,3.75
2022-10-09T23:09:51.474Z,3.40
2022-10-09T23:14:53.346Z,4.20
2022-10-09T23:19:54.936Z,3.42
2022-10-09T23:24:56.534Z,3.78
2022-10-09T23:29:58.173Z,3.38
2022-10-09T23:34:59.759Z,3.00
2022-10-09T23:40:01.368Z,2.95
2022-10-09T23:45:03.290Z,3.58
2022-10-09T23:50:06.473Z,3.30
2022-10-09T23:55:08.654Z,3.10
